sensor_id;sensor_type;location;lat;lon;timestamp;P1;durP1;ratioP1;P2;durP2;ratioP2
5217;SDS011;26539;51.064;6.346;2023-02-28T01:03:48;9.23;;;5.35;;
5217;SDS011;26539;51.064;6.346;2023-02-28T01:06:28;6.60;;;4.80;;
5217;SDS011;26539;51.064;6.346;2023-02-28T01:12:50;4.88;;;4.35;;
5217;SDS011;26539;51.064;6.346;2023-02-28T01:22:49;8.77;;;4.70;;
5217;SDS011;26539;51.064;6.346;2023-02-28T01:25:35;10.02;;;5.60;;
5217;SDS011;26539;51.064;6.346;2023-02-28T01:28:21;7.93;;;4.75;;
5217;SDS011;26539;51.064;6.346;2023-02-28T01:38:09;10.30;;;5.72;;
5217;SDS011;26539;51.064;6.346;2023-02-28T01:41:03;9.70;;;5.28;;
5217;SDS011;26539;51.064;6.346;2023-02-28T01:49:51;9.68;;;5.70;;
5217;SDS011;26539;51.064;6.346;2023-02-28T01:56:05;7.07;;;5.38;;
5217;SDS011;26539;51.064;6.346;2023-02-28T01:59:14;11.20;;;5.95;;
5217;SDS011;26539;51.064;6.346;2023-02-28T02:02:19;8.57;;;5.63;;
5217;SDS011;26539;51.064;6.346;2023-02-28T02:11:58;8.75;;;4.88;;
5217;SDS011;26539;51.064;6.346;2023-02-28T02:14:58;9.88;;;5.95;;
5217;SDS011;26539;51.064;6.346;2023-02-28T02:34:09;8.70;;;6.25;;
5217;SDS011;26539;51.064;6.346;2023-02-28T02:50:41;11.50;;;7.07;;
5217;SDS011;26539;51.064;6.346;2023-02-28T02:59:58;12.82;;;7.57;;
5217;SDS011;26539;51.064;6.346;2023-02-28T03:02:56;10.07;;;6.15;;
5217;SDS011;26539;51.064;6.346;2023-02-28T03:12:23;10.65;;;6.55;;
5217;SDS011;26539;51.064;6.346;2023-02-28T03:35:08;11.43;;;6.65;;
5217;SDS011;26539;51.064;6.346;2023-02-28T03:52:22;8.77;;;6.72;;
5217;SDS011;26539;51.064;6.346;2023-02-28T03:58:43;9.88;;;7.35;;
5217;SDS011;26539;51.064;6.346;2023-02-28T04:12:10;8.63;;;6.85;;
5217;SDS011;26539;51.064;6.346;2023-02-28T04:14:53;12.20;;;8.48;;
5217;SDS011;26539;51.064;6.346;2023-02-28T04:23:46;10.00;;;7.57;;
5217;SDS011;26539;51.064;6.346;2023-02-28T04:26:14;10.15;;;6.28;;
5217;SDS011;26539;51.064;6.346;2023-02-28T04:29:20;11.82;;;6.45;;
5217;SDS011;26539;51.064;6.346;2023-02-28T04:32:12;10.15;;;6.68;;
5217;SDS011;26539;51.064;6.346;2023-02-28T04:35:00;14.52;;;6.53;;
5217;SDS011;26539;51.064;6.346;2023-02-28T04:45:21;10.88;;;6.85;;
5217;SDS011;26539;51.064;6.346;2023-02-28T04:47:54;9.32;;;6.30;;
5217;SDS011;26539;51.064;6.346;2023-02-28T04:56:49;8.10;;;5.22;;
5217;SDS011;26539;51.064;6.346;2023-02-28T05:03:33;10.55;;;5.90;;
5217;SDS011;26539;51.064;6.346;2023-02-28T05:06:37;11.13;;;5.70;;
5217;SDS011;26539;51.064;6.346;2023-02-28T05:37:22;7.72;;;5.32;;
5217;SDS011;26539;51.064;6.346;2023-02-28T07:00:05;10.43;;;6.03;;
5217;SDS011;26539;51.064;6.346;2023-02-28T07:02:34;6.15;;;4.20;;
5217;SDS011;26539;51.064;6.346;2023-02-28T07:05:05;7.07;;;4.80;;
5217;SDS011;26539;51.064;6.346;2023-02-28T07:07:33;8.98;;;5.15;;
5217;SDS011;26539;51.064;6.346;2023-02-28T07:10:01;5.97;;;5.18;;
5217;SDS011;26539;51.064;6.346;2023-02-28T07:12:26;7.17;;;4.80;;
5217;SDS011;26539;51.064;6.346;2023-02-28T07:14:52;8.10;;;5.10;;
5217;SDS011;26539;51.064;6.346;2023-02-28T07:17:23;5.47;;;4.60;;
5217;SDS011;26539;51.064;6.346;2023-02-28T07:19:48;7.00;;;4.70;;
5217;SDS011;26539;51.064;6.346;2023-02-28T07:22:16;7.50;;;4.77;;
5217;SDS011;26539;51.064;6.346;2023-02-28T07:24:44;4.90;;;4.40;;
5217;SDS011;26539;51.064;6.346;2023-02-28T07:27:10;6.23;;;4.37;;
5217;SDS011;26539;51.064;6.346;2023-02-28T07:29:38;6.50;;;4.30;;
5217;SDS011;26539;51.064;6.346;2023-02-28T07:32:03;5.83;;;4.50;;
5217;SDS011;26539;51.064;6.346;2023-02-28T07:34:29;5.73;;;5.07;;
5217;SDS011;26539;51.064;6.346;2023-02-28T07:36:55;6.10;;;4.40;;
5217;SDS011;26539;51.064;6.346;2023-02-28T07:39:21;4.40;;;4.00;;
5217;SDS011;26539;51.064;6.346;2023-02-28T07:41:49;7.27;;;4.27;;
5217;SDS011;26539;51.064;6.346;2023-02-28T07:44:17;6.87;;;4.40;;
5217;SDS011;26539;51.064;6.346;2023-02-28T07:46:46;6.73;;;4.10;;
5217;SDS011;26539;51.064;6.346;2023-02-28T07:49:13;5.07;;;3.60;;
5217;SDS011;26539;51.064;6.346;2023-02-28T07:51:39;7.00;;;3.77;;
5217;SDS011;26539;51.064;6.346;2023-02-28T07:54:04;6.43;;;3.43;;
5217;SDS011;26539;51.064;6.346;2023-02-28T07:56:30;5.30;;;3.90;;
5217;SDS011;26539;51.064;6.346;2023-02-28T07:58:55;5.10;;;3.60;;
5217;SDS011;26539;51.064;6.346;2023-02-28T08:01:21;6.17;;;4.07;;
5217;SDS011;26539;51.064;6.346;2023-02-28T08:03:47;10.20;;;4.40;;
5217;SDS011;26539;51.064;6.346;2023-02-28T08:06:20;3.83;;;3.17;;
5217;SDS011;26539;51.064;6.346;2023-02-28T08:08:52;5.60;;;4.00;;
5217;SDS011;26539;51.064;6.346;2023-02-28T08:11:38;5.60;;;3.80;;
5217;SDS011;26539;51.064;6.346;2023-02-28T08:14:06;6.03;;;3.90;;
5217;SDS011;26539;51.064;6.346;2023-02-28T08:16:42;5.47;;;3.13;;
5217;SDS011;26539;51.064;6.346;2023-02-28T08:19:08;6.20;;;3.13;;
5217;SDS011;26539;51.064;6.346;2023-02-28T08:21:57;7.03;;;3.10;;
5217;SDS011;26539;51.064;6.346;2023-02-28T08:28:11;4.00;;;3.07;;
5217;SDS011;26539;51.064;6.346;2023-02-28T08:31:18;5.67;;;3.20;;
5217;SDS011;26539;51.064;6.346;2023-02-28T08:34:12;5.50;;;3.03;;
5217;SDS011;26539;51.064;6.346;2023-02-28T08:36:49;3.57;;;3.00;;
5217;SDS011;26539;51.064;6.346;2023-02-28T08:39:20;3.43;;;3.13;;
5217;SDS011;26539;51.064;6.346;2023-02-28T08:41:56;5.83;;;2.90;;
5217;SDS011;26539;51.064;6.346;2023-02-28T08:44:24;3.90;;;2.77;;
5217;SDS011;26539;51.064;6.346;2023-02-28T08:46:49;5.20;;;3.07;;
5217;SDS011;26539;51.064;6.346;2023-02-28T08:49:16;3.30;;;2.63;;
5217;SDS011;26539;51.064;6.346;2023-02-28T08:51:42;4.57;;;2.80;;
5217;SDS011;26539;51.064;6.346;2023-02-28T08:54:08;4.03;;;3.23;;
5217;SDS011;26539;51.064;6.346;2023-02-28T08:56:44;3.97;;;3.10;;
5217;SDS011;26539;51.064;6.346;2023-02-28T08:59:11;3.87;;;2.80;;
5217;SDS011;26539;51.064;6.346;2023-02-28T09:01:37;4.80;;;2.50;;
5217;SDS011;26539;51.064;6.346;2023-02-28T09:04:03;3.40;;;2.93;;
5217;SDS011;26539;51.064;6.346;2023-02-28T09:06:36;4.10;;;2.57;;
5217;SDS011;26539;51.064;6.346;2023-02-28T09:09:14;3.57;;;2.40;;
5217;SDS011;26539;51.064;6.346;2023-02-28T09:11:42;3.30;;;2.37;;
5217;SDS011;26539;51.064;6.346;2023-02-28T09:14:07;9.90;;;3.03;;
5217;SDS011;26539;51.064;6.346;2023-02-28T09:16:34;6.70;;;3.40;;
5217;SDS011;26539;51.064;6.346;2023-02-28T09:19:14;2.70;;;2.43;;
5217;SDS011;26539;51.064;6.346;2023-02-28T09:22:02;7.53;;;3.30;;
5217;SDS011;26539;51.064;6.346;2023-02-28T09:24:28;5.00;;;2.87;;
5217;SDS011;26539;51.064;6.346;2023-02-28T09:27:01;3.33;;;2.10;;
5217;SDS011;26539;51.064;6.346;2023-02-28T09:29:26;14.07;;;3.70;;
5217;SDS011;26539;51.064;6.346;2023-02-28T09:31:59;10.23;;;2.80;;
5217;SDS011;26539;51.064;6.346;2023-02-28T09:34:30;5.70;;;2.20;;
5217;SDS011;26539;51.064;6.346;2023-02-28T09:36:56;3.23;;;2.00;;
5217;SDS011;26539;51.064;6.346;2023-02-28T09:39:22;4.93;;;2.33;;
5217;SDS011;26539;51.064;6.346;2023-02-28T09:41:48;4.70;;;2.47;;
5217;SDS011;26539;51.064;6.346;2023-02-28T09:44:20;5.27;;;2.00;;
5217;SDS011;26539;51.064;6.346;2023-02-28T09:46:57;5.20;;;1.90;;
5217;SDS011;26539;51.064;6.346;2023-02-28T09:49:37;5.73;;;1.90;;
5217;SDS011;26539;51.064;6.346;2023-02-28T09:52:19;3.10;;;1.70;;
5217;SDS011;26539;51.064;6.346;2023-02-28T09:55:00;7.93;;;2.27;;
5217;SDS011;26539;51.064;6.346;2023-02-28T09:57:46;4.30;;;1.80;;
5217;SDS011;26539;51.064;6.346;2023-02-28T10:00:14;5.83;;;2.00;;
5217;SDS011;26539;51.064;6.346;2023-02-28T10:05:24;3.57;;;1.90;;
5217;SDS011;26539;51.064;6.346;2023-02-28T10:07:57;14.60;;;2.30;;
5217;SDS011;26539;51.064;6.346;2023-02-28T10:10:37;4.30;;;1.97;;
5217;SDS011;26539;51.064;6.346;2023-02-28T10:13:13;2.90;;;1.93;;
5217;SDS011;26539;51.064;6.346;2023-02-28T10:15:44;4.67;;;1.90;;
5217;SDS011;26539;51.064;6.346;2023-02-28T10:18:13;8.17;;;1.80;;
5217;SDS011;26539;51.064;6.346;2023-02-28T10:20:41;2.53;;;1.63;;
5217;SDS011;26539;51.064;6.346;2023-02-28T10:25:45;2.17;;;1.70;;
5217;SDS011;26539;51.064;6.346;2023-02-28T10:28:17;1.90;;;1.63;;
5217;SDS011;26539;51.064;6.346;2023-02-28T10:30:50;2.67;;;2.00;;
5217;SDS011;26539;51.064;6.346;2023-02-28T10:33:18;9.30;;;2.50;;
5217;SDS011;26539;51.064;6.346;2023-02-28T10:35:48;3.27;;;2.10;;
5217;SDS011;26539;51.064;6.346;2023-02-28T10:38:19;2.03;;;1.70;;
5217;SDS011;26539;51.064;6.346;2023-02-28T10:41:09;2.73;;;2.00;;
5217;SDS011;26539;51.064;6.346;2023-02-28T10:43:37;3.30;;;2.10;;
5217;SDS011;26539;51.064;6.346;2023-02-28T10:48:45;11.10;;;2.30;;
5217;SDS011;26539;51.064;6.346;2023-02-28T10:51:22;3.50;;;2.33;;
5217;SDS011;26539;51.064;6.346;2023-02-28T10:56:18;6.33;;;3.10;;
5217;SDS011;26539;51.064;6.346;2023-02-28T10:58:52;4.77;;;2.67;;
5217;SDS011;26539;51.064;6.346;2023-02-28T11:03:56;8.60;;;2.53;;
5217;SDS011;26539;51.064;6.346;2023-02-28T11:06:26;5.93;;;2.50;;
5217;SDS011;26539;51.064;6.346;2023-02-28T11:08:56;4.63;;;2.50;;
5217;SDS011;26539;51.064;6.346;2023-02-28T11:11:45;3.33;;;1.90;;
5217;SDS011;26539;51.064;6.346;2023-02-28T11:14:17;3.20;;;2.20;;
5217;SDS011;26539;51.064;6.346;2023-02-28T11:16:50;4.33;;;2.00;;
5217;SDS011;26539;51.064;6.346;2023-02-28T11:19:19;5.40;;;2.10;;
5217;SDS011;26539;51.064;6.346;2023-02-28T11:22:15;2.57;;;2.37;;
5217;SDS011;26539;51.064;6.346;2023-02-28T11:24:46;3.63;;;1.93;;
5217;SDS011;26539;51.064;6.346;2023-02-28T11:27:25;2.30;;;2.10;;
5217;SDS011;26539;51.064;6.346;2023-02-28T11:29:50;5.20;;;2.20;;
5217;SDS011;26539;51.064;6.346;2023-02-28T11:32:18;5.80;;;2.20;;
5217;SDS011;26539;51.064;6.346;2023-02-28T11:34:47;4.80;;;2.47;;
5217;SDS011;26539;51.064;6.346;2023-02-28T11:37:29;4.63;;;2.50;;
5217;SDS011;26539;51.064;6.346;2023-02-28T11:39:57;2.23;;;1.80;;
5217;SDS011;26539;51.064;6.346;2023-02-28T11:56:10;4.60;;;2.40;;
5217;SDS011;26539;51.064;6.346;2023-02-28T12:02:00;2.83;;;2.40;;
5217;SDS011;26539;51.064;6.346;2023-02-28T12:04:53;2.83;;;2.00;;
5217;SDS011;26539;51.064;6.346;2023-02-28T12:07:40;4.03;;;2.57;;
5217;SDS011;26539;51.064;6.346;2023-02-28T12:18:37;3.67;;;2.50;;
5217;SDS011;26539;51.064;6.346;2023-02-28T12:21:11;2.60;;;1.90;;
5217;SDS011;26539;51.064;6.346;2023-02-28T12:26:41;3.83;;;3.00;;
5217;SDS011;26539;51.064;6.346;2023-02-28T12:29:22;4.70;;;2.50;;
5217;SDS011;26539;51.064;6.346;2023-02-28T12:31:53;4.13;;;2.63;;
5217;SDS011;26539;51.064;6.346;2023-02-28T12:34:47;2.80;;;2.13;;
5217;SDS011;26539;51.064;6.346;2023-02-28T12:37:28;2.60;;;2.37;;
5217;SDS011;26539;51.064;6.346;2023-02-28T12:40:19;4.93;;;3.03;;
5217;SDS011;26539;51.064;6.346;2023-02-28T12:43:06;4.73;;;2.60;;
5217;SDS011;26539;51.064;6.346;2023-02-28T12:48:53;4.37;;;3.40;;
5217;SDS011;26539;51.064;6.346;2023-02-28T12:51:27;4.80;;;3.70;;
5217;SDS011;26539;51.064;6.346;2023-02-28T12:57:41;3.60;;;2.63;;
5217;SDS011;26539;51.064;6.346;2023-02-28T13:00:20;3.73;;;2.53;;
5217;SDS011;26539;51.064;6.346;2023-02-28T13:06:57;4.63;;;4.13;;
5217;SDS011;26539;51.064;6.346;2023-02-28T13:19:10;4.40;;;4.00;;
5217;SDS011;26539;51.064;6.346;2023-02-28T13:21:51;4.50;;;3.00;;
5217;SDS011;26539;51.064;6.346;2023-02-28T13:24:41;4.60;;;3.33;;
5217;SDS011;26539;51.064;6.346;2023-02-28T13:30:00;4.53;;;3.70;;
5217;SDS011;26539;51.064;6.346;2023-02-28T13:33:05;5.03;;;3.00;;
5217;SDS011;26539;51.064;6.346;2023-02-28T13:36:22;3.90;;;2.57;;
5217;SDS011;26539;51.064;6.346;2023-02-28T13:39:00;4.93;;;3.10;;
5217;SDS011;26539;51.064;6.346;2023-02-28T13:41:48;4.80;;;3.30;;
5217;SDS011;26539;51.064;6.346;2023-02-28T13:44:22;6.97;;;3.10;;
5217;SDS011;26539;51.064;6.346;2023-02-28T13:47:35;3.57;;;2.57;;
5217;SDS011;26539;51.064;6.346;2023-02-28T13:50:24;6.27;;;3.10;;
5217;SDS011;26539;51.064;6.346;2023-02-28T14:06:29;4.87;;;3.50;;
5217;SDS011;26539;51.064;6.346;2023-02-28T14:09:03;4.13;;;2.80;;
5217;SDS011;26539;51.064;6.346;2023-02-28T14:55:20;5.43;;;3.60;;
5217;SDS011;26539;51.064;6.346;2023-02-28T15:18:58;5.43;;;3.20;;
5217;SDS011;26539;51.064;6.346;2023-02-28T15:22:31;5.17;;;3.33;;
5217;SDS011;26539;51.064;6.346;2023-02-28T15:29:19;5.43;;;3.87;;
5217;SDS011;26539;51.064;6.346;2023-02-28T15:32:38;7.00;;;3.30;;
5217;SDS011;26539;51.064;6.346;2023-02-28T15:44:35;7.50;;;5.73;;
5217;SDS011;26539;51.064;6.346;2023-02-28T15:54:46;6.20;;;5.60;;
5217;SDS011;26539;51.064;6.346;2023-02-28T15:58:04;6.10;;;5.13;;
5217;SDS011;26539;51.064;6.346;2023-02-28T16:20:34;8.10;;;5.53;;
5217;SDS011;26539;51.064;6.346;2023-02-28T16:29:42;5.40;;;3.90;;
5217;SDS011;26539;51.064;6.346;2023-02-28T16:38:24;5.22;;;4.40;;
5217;SDS011;26539;51.064;6.346;2023-02-28T16:41:06;6.60;;;5.00;;
5217;SDS011;26539;51.064;6.346;2023-02-28T16:44:06;7.97;;;4.57;;
5217;SDS011;26539;51.064;6.346;2023-02-28T16:46:59;5.87;;;4.43;;
5217;SDS011;26539;51.064;6.346;2023-02-28T16:49:50;6.25;;;5.35;;
5217;SDS011;26539;51.064;6.346;2023-02-28T16:55:32;9.52;;;6.43;;
5217;SDS011;26539;51.064;6.346;2023-02-28T16:58:45;7.20;;;5.78;;
5217;SDS011;26539;51.064;6.346;2023-02-28T17:01:29;10.68;;;6.38;;
5217;SDS011;26539;51.064;6.346;2023-02-28T17:04:35;6.05;;;4.47;;
5217;SDS011;26539;51.064;6.346;2023-02-28T17:07:01;6.00;;;4.33;;
5217;SDS011;26539;51.064;6.346;2023-02-28T17:12:53;5.35;;;4.00;;
5217;SDS011;26539;51.064;6.346;2023-02-28T17:18:49;6.38;;;4.55;;
5217;SDS011;26539;51.064;6.346;2023-02-28T17:21:39;5.28;;;4.78;;
5217;SDS011;26539;51.064;6.346;2023-02-28T17:24:14;6.63;;;4.40;;
5217;SDS011;26539;51.064;6.346;2023-02-28T17:29:46;6.70;;;4.95;;
5217;SDS011;26539;51.064;6.346;2023-02-28T17:47:55;8.88;;;7.00;;
5217;SDS011;26539;51.064;6.346;2023-02-28T17:50:52;5.75;;;4.70;;
5217;SDS011;26539;51.064;6.346;2023-02-28T17:53:30;6.78;;;5.13;;
5217;SDS011;26539;51.064;6.346;2023-02-28T18:00:19;6.50;;;5.80;;
5217;SDS011;26539;51.064;6.346;2023-02-28T18:03:15;16.65;;;5.70;;
5217;SDS011;26539;51.064;6.346;2023-02-28T18:06:39;12.20;;;6.13;;
5217;SDS011;26539;51.064;6.346;2023-02-28T18:09:49;6.70;;;5.53;;
5217;SDS011;26539;51.064;6.346;2023-02-28T18:12:38;8.10;;;5.60;;
5217;SDS011;26539;51.064;6.346;2023-02-28T18:17:56;7.22;;;6.25;;
5217;SDS011;26539;51.064;6.346;2023-02-28T18:38:52;6.97;;;6.05;;
5217;SDS011;26539;51.064;6.346;2023-02-28T18:41:58;9.63;;;8.10;;
5217;SDS011;26539;51.064;6.346;2023-02-28T18:44:49;10.73;;;6.82;;
5217;SDS011;26539;51.064;6.346;2023-02-28T18:47:29;10.52;;;7.32;;
5217;SDS011;26539;51.064;6.346;2023-02-28T18:53:12;6.65;;;5.95;;
5217;SDS011;26539;51.064;6.346;2023-02-28T19:02:03;8.43;;;6.30;;
5217;SDS011;26539;51.064;6.346;2023-02-28T19:05:39;11.70;;;8.23;;
5217;SDS011;26539;51.064;6.346;2023-02-28T19:08:13;11.35;;;6.63;;
5217;SDS011;26539;51.064;6.346;2023-02-28T19:10:59;6.25;;;5.43;;
5217;SDS011;26539;51.064;6.346;2023-02-28T19:13:51;10.70;;;6.85;;
5217;SDS011;26539;51.064;6.346;2023-02-28T19:16:30;7.28;;;5.82;;
5217;SDS011;26539;51.064;6.346;2023-02-28T19:19:38;6.97;;;6.28;;
5217;SDS011;26539;51.064;6.346;2023-02-28T19:22:13;6.93;;;6.32;;
5217;SDS011;26539;51.064;6.346;2023-02-28T19:24:46;5.83;;;5.30;;
5217;SDS011;26539;51.064;6.346;2023-02-28T19:27:32;10.15;;;5.63;;
5217;SDS011;26539;51.064;6.346;2023-02-28T19:31:06;8.32;;;6.43;;
5217;SDS011;26539;51.064;6.346;2023-02-28T19:33:55;10.85;;;6.40;;
5217;SDS011;26539;51.064;6.346;2023-02-28T19:37:01;9.30;;;8.00;;
5217;SDS011;26539;51.064;6.346;2023-02-28T19:42:56;18.45;;;11.98;;
5217;SDS011;26539;51.064;6.346;2023-02-28T19:45:46;32.40;;;17.85;;
5217;SDS011;26539;51.064;6.346;2023-02-28T19:48:23;44.40;;;20.85;;
5217;SDS011;26539;51.064;6.346;2023-02-28T19:53:52;16.05;;;8.80;;
5217;SDS011;26539;51.064;6.346;2023-02-28T19:56:23;9.57;;;7.20;;
5217;SDS011;26539;51.064;6.346;2023-02-28T19:58:56;8.25;;;7.03;;
5217;SDS011;26539;51.064;6.346;2023-02-28T20:01:29;9.88;;;6.93;;
5217;SDS011;26539;51.064;6.346;2023-02-28T20:04:21;13.07;;;9.75;;
5217;SDS011;26539;51.064;6.346;2023-02-28T20:06:58;14.30;;;8.48;;
5217;SDS011;26539;51.064;6.346;2023-02-28T20:10:05;11.52;;;9.10;;
5217;SDS011;26539;51.064;6.346;2023-02-28T20:13:09;8.90;;;7.03;;
5217;SDS011;26539;51.064;6.346;2023-02-28T20:15:57;9.45;;;6.03;;
5217;SDS011;26539;51.064;6.346;2023-02-28T20:18:48;10.75;;;7.10;;
5217;SDS011;26539;51.064;6.346;2023-02-28T20:21:43;8.98;;;6.68;;
5217;SDS011;26539;51.064;6.346;2023-02-28T20:24:17;8.27;;;7.25;;
5217;SDS011;26539;51.064;6.346;2023-02-28T20:26:44;10.40;;;6.93;;
5217;SDS011;26539;51.064;6.346;2023-02-28T20:29:29;7.25;;;6.55;;
5217;SDS011;26539;51.064;6.346;2023-02-28T20:32:06;7.18;;;6.10;;
5217;SDS011;26539;51.064;6.346;2023-02-28T20:34:44;7.35;;;6.22;;
5217;SDS011;26539;51.064;6.346;2023-02-28T20:37:15;8.45;;;6.75;;
5217;SDS011;26539;51.064;6.346;2023-02-28T20:39:48;9.57;;;6.67;;
5217;SDS011;26539;51.064;6.346;2023-02-28T20:42:20;7.05;;;6.30;;
5217;SDS011;26539;51.064;6.346;2023-02-28T20:45:28;8.75;;;6.35;;
5217;SDS011;26539;51.064;6.346;2023-02-28T20:48:07;12.05;;;6.97;;
5217;SDS011;26539;51.064;6.346;2023-02-28T20:50:56;8.20;;;6.57;;
5217;SDS011;26539;51.064;6.346;2023-02-28T20:53:32;9.20;;;6.65;;
5217;SDS011;26539;51.064;6.346;2023-02-28T20:56:15;8.40;;;7.70;;
5217;SDS011;26539;51.064;6.346;2023-02-28T20:58:55;8.10;;;6.45;;
5217;SDS011;26539;51.064;6.346;2023-02-28T21:01:46;9.45;;;8.07;;
5217;SDS011;26539;51.064;6.346;2023-02-28T21:04:14;14.10;;;7.57;;
5217;SDS011;26539;51.064;6.346;2023-02-28T21:06:42;10.48;;;6.78;;
5217;SDS011;26539;51.064;6.346;2023-02-28T21:09:10;9.70;;;7.13;;
5217;SDS011;26539;51.064;6.346;2023-02-28T21:11:40;8.43;;;6.43;;
5217;SDS011;26539;51.064;6.346;2023-02-28T21:14:13;11.68;;;7.07;;
5217;SDS011;26539;51.064;6.346;2023-02-28T21:16:49;11.15;;;7.50;;
5217;SDS011;26539;51.064;6.346;2023-02-28T21:19:17;8.68;;;6.28;;
5217;SDS011;26539;51.064;6.346;2023-02-28T21:21:53;12.50;;;7.18;;
5217;SDS011;26539;51.064;6.346;2023-02-28T21:24:19;9.05;;;7.93;;
5217;SDS011;26539;51.064;6.346;2023-02-28T21:26:52;9.02;;;7.10;;
5217;SDS011;26539;51.064;6.346;2023-02-28T21:29:25;8.60;;;7.13;;
5217;SDS011;26539;51.064;6.346;2023-02-28T21:32:04;12.15;;;8.95;;
5217;SDS011;26539;51.064;6.346;2023-02-28T21:34:40;15.52;;;10.38;;
5217;SDS011;26539;51.064;6.346;2023-02-28T21:37:08;14.35;;;11.45;;
5217;SDS011;26539;51.064;6.346;2023-02-28T21:40:02;13.48;;;8.07;;
5217;SDS011;26539;51.064;6.346;2023-02-28T21:42:44;9.52;;;7.43;;
5217;SDS011;26539;51.064;6.346;2023-02-28T21:45:36;11.55;;;7.88;;
5217;SDS011;26539;51.064;6.346;2023-02-28T21:48:29;7.95;;;7.15;;
5217;SDS011;26539;51.064;6.346;2023-02-28T21:50:56;8.70;;;6.85;;
5217;SDS011;26539;51.064;6.346;2023-02-28T21:53:30;9.18;;;7.22;;
5217;SDS011;26539;51.064;6.346;2023-02-28T21:59:11;11.05;;;7.63;;
5217;SDS011;26539;51.064;6.346;2023-02-28T22:02:00;11.13;;;7.45;;
5217;SDS011;26539;51.064;6.346;2023-02-28T22:07:45;10.73;;;7.30;;
5217;SDS011;26539;51.064;6.346;2023-02-28T22:10:37;7.55;;;6.28;;
5217;SDS011;26539;51.064;6.346;2023-02-28T22:13:05;8.50;;;6.80;;
5217;SDS011;26539;51.064;6.346;2023-02-28T22:15:41;11.52;;;6.85;;
5217;SDS011;26539;51.064;6.346;2023-02-28T22:18:23;8.02;;;6.38;;
5217;SDS011;26539;51.064;6.346;2023-02-28T22:21:47;7.15;;;5.85;;
5217;SDS011;26539;51.064;6.346;2023-02-28T22:34:09;9.77;;;6.88;;
5217;SDS011;26539;51.064;6.346;2023-02-28T22:36:44;7.25;;;6.00;;
5217;SDS011;26539;51.064;6.346;2023-02-28T22:39:46;15.18;;;7.40;;
5217;SDS011;26539;51.064;6.346;2023-02-28T22:45:42;12.07;;;7.00;;
5217;SDS011;26539;51.064;6.346;2023-02-28T22:48:36;13.65;;;7.55;;
5217;SDS011;26539;51.064;6.346;2023-02-28T22:51:14;9.18;;;6.80;;
5217;SDS011;26539;51.064;6.346;2023-02-28T22:53:51;12.75;;;8.18;;
5217;SDS011;26539;51.064;6.346;2023-02-28T22:56:44;11.00;;;7.85;;
5217;SDS011;26539;51.064;6.346;2023-02-28T22:59:20;14.88;;;7.85;;
5217;SDS011;26539;51.064;6.346;2023-02-28T23:02:11;9.48;;;7.05;;
5217;SDS011;26539;51.064;6.346;2023-02-28T23:05:17;8.40;;;7.13;;
5217;SDS011;26539;51.064;6.346;2023-02-28T23:07:46;11.53;;;7.40;;
5217;SDS011;26539;51.064;6.346;2023-02-28T23:10:34;11.35;;;7.78;;
5217;SDS011;26539;51.064;6.346;2023-02-28T23:13:31;9.35;;;6.93;;
5217;SDS011;26539;51.064;6.346;2023-02-28T23:22:04;8.95;;;7.47;;
5217;SDS011;26539;51.064;6.346;2023-02-28T23:25:27;12.25;;;7.82;;
5217;SDS011;26539;51.064;6.346;2023-02-28T23:28:06;9.00;;;7.60;;
5217;SDS011;26539;51.064;6.346;2023-02-28T23:30:36;9.90;;;6.68;;
5217;SDS011;26539;51.064;6.346;2023-02-28T23:39:11;11.85;;;7.50;;
5217;SDS011;26539;51.064;6.346;2023-02-28T23:42:07;11.10;;;8.10;;
5217;SDS011;26539;51.064;6.346;2023-02-28T23:44:42;8.27;;;7.25;;
5217;SDS011;26539;51.064;6.346;2023-02-28T23:47:10;10.10;;;8.30;;
5217;SDS011;26539;51.064;6.346;2023-02-28T23:49:58;12.70;;;8.55;;
5217;SDS011;26539;51.064;6.346;2023-02-28T23:52:51;9.70;;;7.53;;
5217;SDS011;26539;51.064;6.346;2023-02-28T23:55:20;10.90;;;7.93;;
5217;SDS011;26539;51.064;6.346;2023-02-28T23:57:55;11.52;;;7.90;;
